Terminal Aerodrome Forecast
Issued by NWS New Orleans/Baton Rouge, LA

Home | Current Version | Previous Version | Text Only | Print | Product List | Glossary On
Versions: 1 2 3 4 5 6 7 8 9 10 11 12 13 14 15 16 17 18 19 20 21
655
FTUS44 KLIX 012338
TAFBTR
TAF
KBTR 012338Z 0200/0224 00000KT P6SM OVC150
     FM020500 VRB03KT P6SM VCTS BKN015CB
     FM021000 VRB03KT P6SM SHRA OVC015
      TEMPO 0210/0214 VRB28KT 3SM TSRA BKN012CB
     FM021400 20006KT P6SM -SHRA OVC025=

USA.gov is the U.S. government's official web portal to all federal, state and local government web resources and services.